createdAt,value
2022-10-20T00:01:16.837Z,-0.50
2022-10-20T00:06:23.881Z,-0.50
2022-10-20T00:11:27.683Z,-0.60
2022-10-20T00:16:32.242Z,-0.70
2022-10-20T00:21:34.677Z,1.30
2022-10-20T00:26:37.140Z,-0.80
2022-10-20T00:31:39.536Z,-0.80
2022-10-20T00:36:41.998Z,-0.80
2022-10-20T00:41:44.428Z,-0.90
2022-10-20T00:46:47.271Z,-0.70
2022-10-20T00:51:51.050Z,-0.50
2022-10-20T00:56:55.990Z,-0.50
2022-10-20T01:02:01.549Z,-0.70
2022-10-20T01:07:04.626Z,-0.80
2022-10-20T01:12:16.381Z,-1.00
2022-10-20T01:17:44.685Z,-1.00
2022-10-20T01:23:19.470Z,-1.10
2022-10-20T01:28:42.370Z,-1.00
2022-10-20T01:33:57.595Z,-1.10
2022-10-20T01:39:09.357Z,-1.00
2022-10-20T01:44:15.018Z,-0.90
2022-10-20T01:49:17.480Z,-1.00
2022-10-20T01:54:25.121Z,-0.50
2022-10-20T01:59:27.793Z,-1.00
2022-10-20T02:04:56.341Z,-1.30
2022-10-20T02:10:37.564Z,-1.20
2022-10-20T02:15:45.467Z,-1.20
2022-10-20T02:20:53.746Z,-1.30
2022-10-20T02:25:57.704Z,-1.40
2022-10-20T02:31:00.316Z,-1.30
2022-10-20T02:36:06.174Z,-1.40
2022-10-20T02:41:08.549Z,-1.20
2022-10-20T02:46:11.074Z,-1.20
2022-10-20T02:51:13.692Z,-1.20
2022-10-20T02:56:16.172Z,-1.20
2022-10-20T03:01:18.924Z,-1.20
2022-10-20T03:06:21.447Z,-1.40
2022-10-20T03:11:25.472Z,-1.50
2022-10-20T03:16:27.905Z,-1.50
2022-10-20T03:21:30.482Z,-1.50
2022-10-20T03:26:33.586Z,-1.60
2022-10-20T03:31:36.093Z,-1.40
2022-10-20T03:36:39.031Z,-1.50
2022-10-20T03:41:41.597Z,-1.50
2022-10-20T03:46:44.067Z,-1.50
2022-10-20T03:51:46.477Z,-1.60
2022-10-20T03:56:48.920Z,-1.60
2022-10-20T04:01:51.449Z,-1.50
2022-10-20T04:06:53.861Z,-1.60
2022-10-20T04:11:56.262Z,-1.60
2022-10-20T04:16:58.640Z,-1.70
2022-10-20T04:22:01.159Z,-1.90
2022-10-20T04:27:03.819Z,-1.70
2022-10-20T04:32:06.245Z,-1.50
2022-10-20T04:37:08.760Z,-1.40
2022-10-20T04:42:11.131Z,-1.40
2022-10-20T04:47:13.603Z,-1.50
2022-10-20T04:52:17.274Z,-1.50
2022-10-20T04:57:19.672Z,-1.80
2022-10-20T05:02:22.130Z,-1.80
2022-10-20T05:07:24.707Z,-1.90
2022-10-20T05:12:27.990Z,-1.90
2022-10-20T05:17:30.924Z,-1.70
2022-10-20T05:22:33.489Z,-1.70
2022-10-20T05:27:36.065Z,-1.50
2022-10-20T05:32:38.849Z,-1.30
2022-10-20T05:37:41.384Z,-1.40
2022-10-20T05:42:43.995Z,-1.30
2022-10-20T05:47:46.442Z,-1.30
2022-10-20T05:52:48.915Z,-1.10
2022-10-20T05:57:51.811Z,-1.00
2022-10-20T06:02:54.791Z,-0.80
2022-10-20T06:07:57.154Z,-0.70
2022-10-20T06:12:59.719Z,-0.50
2022-10-20T06:18:02.090Z,-0.40
2022-10-20T06:23:04.600Z,-0.40
2022-10-20T06:28:06.970Z,-0.20
2022-10-20T06:33:12.343Z,0.10
2022-10-20T06:38:14.894Z,0.20
2022-10-20T06:43:17.502Z,0.20
2022-10-20T06:48:20.203Z,0.50
2022-10-20T06:53:22.633Z,0.70
2022-10-20T06:58:25.853Z,1.00
2022-10-20T07:03:30.012Z,1.10
2022-10-20T07:08:34.528Z,1.30
2022-10-20T07:13:37.938Z,1.50
2022-10-20T07:18:41.128Z,1.60
2022-10-20T07:23:44.393Z,1.80
2022-10-20T07:28:54.662Z,2.20
2022-10-20T07:34:07.244Z,2.40
2022-10-20T07:39:16.410Z,2.80
2022-10-20T07:44:19.159Z,3.10
2022-10-20T07:49:51.426Z,3.40
2022-10-20T07:54:44.636Z,3.50
2022-10-20T07:59:47.070Z,4.00
2022-10-20T08:04:50.447Z,4.10
2022-10-20T08:09:53.013Z,4.30
2022-10-20T08:14:55.601Z,4.40
2022-10-20T08:20:04.929Z,4.60
2022-10-20T08:25:15.877Z,4.80
2022-10-20T08:30:23.837Z,5.00
2022-10-20T08:35:26.768Z,5.30
2022-10-20T08:40:31.461Z,5.70
2022-10-20T08:45:38.173Z,5.70
2022-10-20T08:50:46.297Z,5.90
2022-10-20T08:55:49.113Z,6.10
2022-10-20T09:00:57.991Z,6.40
2022-10-20T09:06:09.366Z,6.70
2022-10-20T09:11:21.178Z,7.00
2022-10-20T09:16:40.699Z,7.20
2022-10-20T09:21:48.079Z,7.30
2022-10-20T09:26:59.130Z,7.20
2022-10-20T09:32:15.404Z,7.50
2022-10-20T09:37:24.777Z,7.40
2022-10-20T09:42:40.635Z,7.60
2022-10-20T09:47:46.839Z,7.70
2022-10-20T09:52:49.567Z,7.90
2022-10-20T09:57:54.460Z,8.40
2022-10-20T10:03:09.899Z,8.50
2022-10-20T10:08:17.418Z,8.40
2022-10-20T10:13:26.625Z,8.50
2022-10-20T10:18:29.197Z,8.50
2022-10-20T10:23:36.355Z,8.60
2022-10-20T10:28:40.527Z,8.70
2022-10-20T10:33:43.267Z,8.70
2022-10-20T10:38:45.760Z,8.60
2022-10-20T10:44:22.255Z,8.70
2022-10-20T10:49:51.903Z,9.10
2022-10-20T10:55:48.160Z,9.60
2022-10-20T11:00:51.758Z,9.80
2022-10-20T11:06:24.897Z,10.20
2022-10-20T11:11:33.267Z,10.60
2022-10-20T11:17:04.983Z,11.20
2022-10-20T11:22:40.925Z,10.70
2022-10-20T11:27:43.573Z,11.10
2022-10-20T11:32:56.491Z,11.60
2022-10-20T11:38:42.511Z,11.80
2022-10-20T11:44:14.604Z,11.90
2022-10-20T11:49:18.219Z,11.40
2022-10-20T11:54:54.202Z,10.70
2022-10-20T12:00:55.190Z,12.10
2022-10-20T12:06:07.562Z,10.40
2022-10-20T12:11:30.135Z,10.40
2022-10-20T12:16:54.588Z,10.90
2022-10-20T12:22:14.409Z,10.90
2022-10-20T12:27:22.655Z,10.70
2022-10-20T12:32:37.038Z,10.40
2022-10-20T12:37:42.386Z,10.00
2022-10-20T12:42:52.065Z,9.60
2022-10-20T12:47:59.252Z,9.50
2022-10-20T12:53:28.172Z,9.40
2022-10-20T12:58:35.167Z,9.40
2022-10-20T13:03:46.969Z,9.90
2022-10-20T13:09:10.256Z,10.50
2022-10-20T13:14:12.970Z,10.40
2022-10-20T13:19:30.451Z,10.40
2022-10-20T13:24:35.161Z,10.20
2022-10-20T13:29:43.737Z,9.90
2022-10-20T13:34:59.362Z,9.60
2022-10-20T13:40:24.386Z,9.50
2022-10-20T13:45:35.393Z,9.20
2022-10-20T13:50:44.167Z,9.20
2022-10-20T13:55:59.144Z,9.10
2022-10-20T14:01:07.452Z,9.20
2022-10-20T14:06:33.160Z,9.20
2022-10-20T14:11:35.949Z,9.20
2022-10-20T14:16:39.372Z,9.10
2022-10-20T14:21:49.392Z,9.00
2022-10-20T14:26:52.269Z,8.90
2022-10-20T14:31:55.239Z,8.80
2022-10-20T14:36:58.441Z,8.60
2022-10-20T14:42:03.965Z,8.60
2022-10-20T14:47:06.879Z,8.50
2022-10-20T14:52:21.283Z,8.40
2022-10-20T14:57:39.117Z,8.20
2022-10-20T15:02:42.897Z,7.80
2022-10-20T15:07:45.527Z,7.80
2022-10-20T15:12:49.580Z,7.40
2022-10-20T15:18:04.957Z,7.20
2022-10-20T15:23:22.186Z,6.80
2022-10-20T15:28:38.407Z,6.50
2022-10-20T15:33:43.078Z,6.60
2022-10-20T15:38:45.595Z,6.20
2022-10-20T15:43:48.504Z,6.10
2022-10-20T15:48:50.901Z,5.90
2022-10-20T15:53:54.636Z,5.80
2022-10-20T15:58:57.241Z,5.70
2022-10-20T16:04:03.287Z,5.30
2022-10-20T16:09:05.856Z,4.70
2022-10-20T16:14:08.480Z,4.70
2022-10-20T16:19:11.051Z,4.90
2022-10-20T16:24:13.640Z,4.90
2022-10-20T16:29:16.023Z,4.80
2022-10-20T16:34:18.455Z,4.70
2022-10-20T16:39:21.018Z,4.80
2022-10-20T16:44:23.556Z,4.60
2022-10-20T16:49:26.251Z,4.40
2022-10-20T16:54:29.063Z,4.00
2022-10-20T16:59:31.804Z,4.20
2022-10-20T17:04:34.300Z,3.90
2022-10-20T17:09:36.911Z,3.70
2022-10-20T17:14:40.818Z,3.50
2022-10-20T17:19:43.558Z,3.10
2022-10-20T17:24:46.172Z,2.90
2022-10-20T17:29:48.889Z,3.00
2022-10-20T17:34:51.620Z,2.50
2022-10-20T17:39:54.480Z,2.20
2022-10-20T17:44:57.417Z,2.40
2022-10-20T17:50:00.149Z,2.80
2022-10-20T17:55:02.996Z,2.80
2022-10-20T18:00:10.944Z,2.90
2022-10-20T18:05:19.564Z,3.10
2022-10-20T18:15:29.623Z,3.00
2022-10-20T18:20:33.704Z,3.10
2022-10-20T18:25:36.901Z,3.10
2022-10-20T18:30:39.649Z,2.90
2022-10-20T18:35:43.070Z,3.00
2022-10-20T18:40:46.337Z,2.60
2022-10-20T18:45:52.697Z,2.50
2022-10-20T18:51:00.488Z,2.40
2022-10-20T18:56:04.809Z,2.60
2022-10-20T19:01:10.207Z,2.90
2022-10-20T19:06:16.780Z,2.80
2022-10-20T19:11:21.799Z,2.60
2022-10-20T19:16:27.415Z,2.80
2022-10-20T19:21:30.523Z,2.90
2022-10-20T19:26:37.905Z,2.90
2022-10-20T19:31:40.372Z,2.80
2022-10-20T19:36:46.684Z,2.80
2022-10-20T19:41:49.110Z,2.70
2022-10-20T19:46:51.780Z,2.50
2022-10-20T19:51:54.659Z,2.40
2022-10-20T19:56:57.341Z,2.50
2022-10-20T20:01:59.895Z,2.50
2022-10-20T20:07:02.734Z,2.40
2022-10-20T20:12:05.223Z,2.60
2022-10-20T20:17:10.200Z,2.70
2022-10-20T20:22:13.856Z,2.80
2022-10-20T20:27:16.335Z,2.90
2022-10-20T20:32:19.021Z,2.90
2022-10-20T20:37:22.088Z,3.00
2022-10-20T20:42:25.594Z,2.90
2022-10-20T20:47:30.989Z,2.90
2022-10-20T20:52:33.699Z,3.10
2022-10-20T20:57:36.328Z,3.20
2022-10-20T21:02:38.852Z,3.20
2022-10-20T21:07:41.390Z,3.20
2022-10-20T21:12:43.980Z,3.00
2022-10-20T21:17:46.654Z,3.10
2022-10-20T21:22:49.149Z,3.20
2022-10-20T21:27:51.567Z,3.20
2022-10-20T21:32:54.128Z,3.30
2022-10-20T21:37:57.459Z,3.40
2022-10-20T21:42:59.824Z,3.30
2022-10-20T21:48:02.683Z,3.30
2022-10-20T21:53:05.167Z,3.10
2022-10-20T21:58:08.157Z,3.00
2022-10-20T22:03:10.673Z,3.00
2022-10-20T22:08:13.178Z,3.00
2022-10-20T22:13:15.712Z,2.90
2022-10-20T22:18:18.304Z,2.80
2022-10-20T22:23:20.849Z,2.80
2022-10-20T22:28:23.343Z,2.80
2022-10-20T22:33:25.819Z,2.80
2022-10-20T22:38:28.311Z,2.60
2022-10-20T22:43:31.925Z,2.70
2022-10-20T22:48:35.254Z,2.70
2022-10-20T22:53:38.503Z,2.60
2022-10-20T22:58:42.900Z,2.50
2022-10-20T23:03:45.835Z,2.60
2022-10-20T23:08:51.172Z,2.60
2022-10-20T23:13:53.872Z,2.60
2022-10-20T23:18:56.438Z,2.50
2022-10-20T23:23:58.919Z,2.30
2022-10-20T23:29:01.395Z,2.60
2022-10-20T23:34:03.992Z,2.60
2022-10-20T23:39:06.476Z,2.70
2022-10-20T23:44:09.563Z,2.60
2022-10-20T23:49:12.040Z,2.60
2022-10-20T23:54:14.507Z,2.60
2022-10-20T23:59:16.909Z,2.60
